Time;durP1;ratioP1;P1;durP2;ratioP2;P2;SDS_P1;SDS_P2;PMS_P1;PMS_P2;Temp;Humidity;BMP_temperature;BMP_pressure;BME280_temperature;BME280_humidity;BME280_pressure;Samples;Min_cycle;Max_cycle;Signal;HPM_P1;HPM_P2
2023/01/17 00:00:23;;;;;;;;;;;;;;;;;;5049042;28;19913;-62
2023/01/17 00:02:49;;;;;;;;;;;;;;;;;;5048376;28;19913;-63
2023/01/17 00:10:44;;;;;;;;;;;;;;;;;;5048721;28;19954;-61
2023/01/17 00:13:10;;;;;;;;;;;;;;;;;;5048089;28;19917;-62
2023/01/17 00:15:38;;;;;;;;;;;;;;;;;;5048394;28;20018;-61
2023/01/17 00:18:04;;;;;;;;;;;;;;;;;;5048549;28;20471;-63
2023/01/17 00:26:03;;;;;;;;;;;;;;;;;;5048433;28;19959;-61
2023/01/17 01:35:13;;;;;;;;;;;;;;;;;;5050582;28;20350;-62
2023/01/17 01:37:39;;;;;;;;;;;;;;;;;;5050969;28;19983;-63
2023/01/17 01:40:05;;;;;;;;;;;;;;;;;;5050811;28;20763;-64
2023/01/17 01:42:30;;;;;;;;;;;;;;;;;;5051170;28;19912;-63
2023/01/17 01:44:56;;;;;;;;;;;;;;;;;;5050208;28;20002;-63
2023/01/17 01:47:22;;;;;;;;;;;;;;;;;;5050351;28;19920;-62
2023/01/17 01:49:48;;;;;;;;;;;;;;;;;;5050611;28;19919;-63
2023/01/17 01:52:14;;;;;;;;;;;;;;;;;;5049923;28;20384;-64
2023/01/17 01:54:40;;;;;;;;;;;;;;;;;;5050679;28;19920;-63
2023/01/17 01:57:06;;;;;;;;;;;;;;;;;;5050537;28;19920;-62
2023/01/17 01:59:32;;;;;;;;;;;;;;;;;;5050714;28;19920;-60
2023/01/17 02:01:58;;;;;;;;;;;;;;;;;;5049994;28;19912;-62
2023/01/17 02:04:23;;;;;;;;;;;;;;;;;;5050309;28;19959;-64
2023/01/17 02:06:49;;;;;;;;;;;;;;;;;;5050267;28;19917;-64
2023/01/17 02:09:15;;;;;;;;;;;;;;;;;;5049807;28;19921;-62
2023/01/17 02:11:41;;;;;;;;;;;;;;;;;;5049818;28;20019;-62
2023/01/17 02:14:07;;;;;;;;;;;;;;;;;;5043276;28;19927;-62
2023/01/17 02:16:33;;;;;;;;;;;;;;;;;;5049602;28;19909;-63
2023/01/17 02:18:59;;;;;;;;;;;;;;;;;;5050351;28;19913;-63
2023/01/17 02:21:25;;;;;;;;;;;;;;;;;;5050023;28;20406;-61
2023/01/17 02:23:51;;;;;;;;;;;;;;;;;;5049585;28;19909;-64
2023/01/17 02:26:16;;;;;;;;;;;;;;;;;;5050256;28;20339;-62
2023/01/17 02:28:42;;;;;;;;;;;;;;;;;;5049732;28;19960;-63
2023/01/17 02:31:08;;;;;;;;;;;;;;;;;;5049481;28;20268;-62
2023/01/17 02:33:34;;;;;;;;;;;;;;;;;;5050109;28;19950;-63
2023/01/17 02:36:02;;;;;;;;;;;;;;;;;;5049611;28;20442;-64
2023/01/17 02:38:30;;;;;;;;;;;;;;;;;;5049698;28;19917;-62
2023/01/17 02:40:56;;;;;;;;;;;;;;;;;;5049730;28;20011;-63
2023/01/17 02:43:22;;;;;;;;;;;;;;;;;;5049122;28;20007;-63
2023/01/17 02:45:47;;;;;;;;;;;;;;;;;;5049626;28;19921;-61
2023/01/17 02:48:13;;;;;;;;;;;;;;;;;;5049354;28;19913;-62
2023/01/17 02:50:39;;;;;;;;;;;;;;;;;;5049492;28;19955;-63
2023/01/17 02:53:05;;;;;;;;;;;;;;;;;;5049193;28;19927;-62
2023/01/17 02:55:31;;;;;;;;;;;;;;;;;;5049391;28;19909;-61
2023/01/17 02:57:57;;;;;;;;;;;;;;;;;;5048841;28;19948;-63
2023/01/17 03:00:23;;;;;;;;;;;;;;;;;;5048762;28;19917;-64
2023/01/17 03:02:49;;;;;;;;;;;;;;;;;;5049062;28;19913;-63
2023/01/17 03:05:15;;;;;;;;;;;;;;;;;;5048741;28;19941;-64
2023/01/17 03:07:43;;;;;;;;;;;;;;;;;;5049067;28;19996;-63
2023/01/17 03:10:08;;;;;;;;;;;;;;;;;;5049150;28;19913;-63
2023/01/17 03:12:34;;;;;;;;;;;;;;;;;;5048670;28;20331;-64
2023/01/17 03:15:00;;;;;;;;;;;;;;;;;;5048835;28;19963;-62
2023/01/17 03:17:26;;;;;;;;;;;;;;;;;;5048642;28;20361;-62
2023/01/17 03:19:52;;;;;;;;;;;;;;;;;;5049162;28;19908;-63
2023/01/17 03:22:18;;;;;;;;;;;;;;;;;;5049151;28;19916;-62
2023/01/17 03:24:46;;;;;;;;;;;;;;;;;;5041891;28;20200;-63
2023/01/17 03:27:12;;;;;;;;;;;;;;;;;;5041930;28;19951;-63
2023/01/17 03:29:38;;;;;;;;;;;;;;;;;;5048931;28;20562;-63
2023/01/17 03:32:04;;;;;;;;;;;;;;;;;;5048831;28;19920;-63
2023/01/17 03:34:30;;;;;;;;;;;;;;;;;;5049141;28;20705;-63
2023/01/17 03:36:56;;;;;;;;;;;;;;;;;;5048776;28;19948;-64
2023/01/17 03:39:22;;;;;;;;;;;;;;;;;;5049000;28;20417;-63
2023/01/17 03:41:48;;;;;;;;;;;;;;;;;;5048488;28;19908;-63
2023/01/17 03:44:14;;;;;;;;;;;;;;;;;;5048647;28;19927;-64
2023/01/17 03:46:39;;;;;;;;;;;;;;;;;;5048696;28;19913;-63
2023/01/17 03:49:05;;;;;;;;;;;;;;;;;;5047376;28;20369;-63
2023/01/17 03:51:31;;;;;;;;;;;;;;;;;;5049153;28;19919;-64
2023/01/17 03:53:57;;;;;;;;;;;;;;;;;;5048814;28;19967;-64
2023/01/17 03:56:23;;;;;;;;;;;;;;;;;;5048032;28;20385;-62
2023/01/17 03:58:50;;;;;;;;;;;;;;;;;;5048575;28;19912;-63
2023/01/17 04:01:16;;;;;;;;;;;;;;;;;;5048623;28;19913;-64
2023/01/17 04:03:42;;;;;;;;;;;;;;;;;;5048311;28;19967;-63
2023/01/17 04:06:07;;;;;;;;;;;;;;;;;;5048463;28;19974;-64
2023/01/17 04:08:33;;;;;;;;;;;;;;;;;;5048606;28;19909;-65
2023/01/17 04:10:59;;;;;;;;;;;;;;;;;;5048011;28;19962;-64
2023/01/17 04:13:25;;;;;;;;;;;;;;;;;;5047910;28;19932;-64
2023/01/17 04:15:51;;;;;;;;;;;;;;;;;;5049977;28;19912;-63
2023/01/17 04:18:17;;;;;;;;;;;;;;;;;;5052204;28;19913;-63
2023/01/17 04:20:43;;;;;;;;;;;;;;;;;;5052083;28;19917;-64
2023/01/17 04:23:09;;;;;;;;;;;;;;;;;;5052746;28;19954;-65
2023/01/17 04:25:35;;;;;;;;;;;;;;;;;;5051415;28;19909;-62
2023/01/17 04:28:01;;;;;;;;;;;;;;;;;;5052006;28;19913;-64
2023/01/17 04:30:27;;;;;;;;;;;;;;;;;;5046368;28;19912;-62
2023/01/17 04:32:53;;;;;;;;;;;;;;;;;;5051903;28;19924;-64
2023/01/17 04:35:19;;;;;;;;;;;;;;;;;;5051892;28;20373;-64
2023/01/17 04:37:44;;;;;;;;;;;;;;;;;;5051925;28;19913;-64
2023/01/17 04:40:10;;;;;;;;;;;;;;;;;;5051597;28;20377;-64
2023/01/17 04:42:36;;;;;;;;;;;;;;;;;;5051944;28;19909;-65
2023/01/17 04:45:02;;;;;;;;;;;;;;;;;;5051353;28;19928;-65
2023/01/17 04:47:28;;;;;;;;;;;;;;;;;;5051905;28;19913;-65
2023/01/17 04:49:54;;;;;;;;;;;;;;;;;;5051417;28;19944;-62
2023/01/17 04:52:20;;;;;;;;;;;;;;;;;;5051784;28;20380;-64
2023/01/17 04:54:49;;;;;;;;;;;;;;;;;;5051437;28;19962;-64
2023/01/17 04:57:15;;;;;;;;;;;;;;;;;;5051766;28;19912;-64
2023/01/17 04:59:41;;;;;;;;;;;;;;;;;;5051762;28;19916;-65
2023/01/17 05:02:07;;;;;;;;;;;;;;;;;;5051160;28;19912;-63
2023/01/17 05:04:32;;;;;;;;;;;;;;;;;;5051257;28;20439;-63
2023/01/17 05:06:58;;;;;;;;;;;;;;;;;;5050375;28;19959;-63
2023/01/17 05:09:24;;;;;;;;;;;;;;;;;;5051026;28;20059;-62
2023/01/17 05:11:50;;;;;;;;;;;;;;;;;;5050858;28;20003;-63
2023/01/17 05:14:16;;;;;;;;;;;;;;;;;;5051361;28;19920;-62
2023/01/17 05:16:42;;;;;;;;;;;;;;;;;;5050977;28;19974;-63
2023/01/17 05:19:08;;;;;;;;;;;;;;;;;;5051570;28;20526;-62
2023/01/17 05:21:34;;;;;;;;;;;;;;;;;;5051156;28;19913;-62
2023/01/17 05:24:00;;;;;;;;;;;;;;;;;;5050948;28;20015;-62
2023/01/17 05:26:26;;;;;;;;;;;;;;;;;;5049219;28;19919;-64
2023/01/17 05:28:51;;;;;;;;;;;;;;;;;;5050274;28;20354;-64
2023/01/17 05:31:17;;;;;;;;;;;;;;;;;;5050684;28;19960;-63
2023/01/17 05:33:43;;;;;;;;;;;;;;;;;;5050914;28;19917;-63
2023/01/17 05:36:09;;;;;;;;;;;;;;;;;;5044112;28;20009;-63
2023/01/17 05:38:35;;;;;;;;;;;;;;;;;;5050565;28;19920;-63
2023/01/17 05:41:01;;;;;;;;;;;;;;;;;;5050878;28;19944;-63
2023/01/17 05:43:27;;;;;;;;;;;;;;;;;;5050467;28;19917;-63
2023/01/17 05:45:53;;;;;;;;;;;;;;;;;;5050614;28;19915;-63
2023/01/17 05:48:19;;;;;;;;;;;;;;;;;;5050856;28;20388;-64
2023/01/17 05:50:45;;;;;;;;;;;;;;;;;;5051056;28;19999;-64
2023/01/17 05:53:11;;;;;;;;;;;;;;;;;;5050166;28;20113;-63
2023/01/17 05:55:37;;;;;;;;;;;;;;;;;;5050564;28;20321;-63
2023/01/17 05:58:03;;;;;;;;;;;;;;;;;;5050647;28;20377;-63
2023/01/17 06:00:28;;;;;;;;;;;;;;;;;;5050206;28;19917;-61
2023/01/17 06:02:54;;;;;;;;;;;;;;;;;;5050503;28;20380;-64
2023/01/17 06:05:20;;;;;;;;;;;;;;;;;;5050026;28;19909;-64
2023/01/17 06:07:46;;;;;;;;;;;;;;;;;;5049951;28;19912;-63
2023/01/17 06:10:13;;;;;;;;;;;;;;;;;;5049828;28;19975;-64
2023/01/17 06:12:39;;;;;;;;;;;;;;;;;;5050000;28;19917;-64
2023/01/17 06:15:05;;;;;;;;;;;;;;;;;;5050184;28;19913;-63
2023/01/17 06:17:31;;;;;;;;;;;;;;;;;;5050281;28;19980;-63
2023/01/17 06:19:57;;;;;;;;;;;;;;;;;;5050503;28;19932;-63
2023/01/17 06:22:23;;;;;;;;;;;;;;;;;;5049945;28;19913;-63
2023/01/17 06:24:49;;;;;;;;;;;;;;;;;;5049776;28;19970;-63
2023/01/17 06:27:15;;;;;;;;;;;;;;;;;;5049917;28;19909;-62
2023/01/17 06:29:41;;;;;;;;;;;;;;;;;;5050053;28;19955;-64
2023/01/17 06:32:07;;;;;;;;;;;;;;;;;;5048433;28;20672;-63
2023/01/17 06:34:33;;;;;;;;;;;;;;;;;;5049472;28;19998;-64
2023/01/17 06:36:58;;;;;;;;;;;;;;;;;;5049703;28;19960;-64
2023/01/17 06:39:24;;;;;;;;;;;;;;;;;;5048921;28;20003;-63
2023/01/17 06:41:50;;;;;;;;;;;;;;;;;;5049746;28;19916;-63
2023/01/17 06:44:16;;;;;;;;;;;;;;;;;;5049130;28;19921;-63
2023/01/17 06:46:43;;;;;;;;;;;;;;;;;;5049510;28;19923;-62
2023/01/17 06:49:09;;;;;;;;;;;;;;;;;;5049735;28;19924;-63
2023/01/17 06:51:35;;;;;;;;;;;;;;;;;;5048943;28;19913;-63
2023/01/17 06:54:01;;;;;;;;;;;;;;;;;;5049328;28;19924;-64
2023/01/17 06:56:27;;;;;;;;;;;;;;;;;;5049418;28;20007;-64
2023/01/17 06:58:53;;;;;;;;;;;;;;;;;;5049362;28;19913;-63
2023/01/17 07:01:19;;;;;;;;;;;;;;;;;;5049199;28;19917;-64
2023/01/17 07:03:45;;;;;;;;;;;;;;;;;;5049618;28;19999;-63
2023/01/17 07:06:10;;;;;;;;;;;;;;;;;;5049162;28;19938;-63
2023/01/17 07:08:36;;;;;;;;;;;;;;;;;;5049261;28;19913;-62
2023/01/17 07:11:02;;;;;;;;;;;;;;;;;;5048832;28;20377;-63
2023/01/17 07:13:29;;;;;;;;;;;;;;;;;;5048657;28;19974;-63
2023/01/17 07:15:55;;;;;;;;;;;;;;;;;;5048582;28;19916;-60
2023/01/17 07:18:24;;;;;;;;;;;;;;;;;;5049111;28;19982;-63
2023/01/17 07:20:49;;;;;;;;;;;;;;;;;;5048687;28;19919;-62
2023/01/17 07:23:15;;;;;;;;;;;;;;;;;;5048660;28;19913;-64
2023/01/17 07:25:41;;;;;;;;;;;;;;;;;;5049012;28;20008;-63
2023/01/17 07:28:07;;;;;;;;;;;;;;;;;;5047798;28;20003;-63
2023/01/17 07:30:34;;;;;;;;;;;;;;;;;;5048898;28;19917;-63
2023/01/17 07:33:00;;;;;;;;;;;;;;;;;;5048567;28;19963;-63
2023/01/17 07:35:26;;;;;;;;;;;;;;;;;;5047313;28;19920;-63
2023/01/17 07:37:52;;;;;;;;;;;;;;;;;;5048661;28;19962;-65
2023/01/17 07:40:18;;;;;;;;;;;;;;;;;;5049061;28;20435;-63
2023/01/17 07:42:44;;;;;;;;;;;;;;;;;;5048704;28;20364;-64
2023/01/17 07:45:10;;;;;;;;;;;;;;;;;;5048597;28;19956;-64
2023/01/17 07:47:36;;;;;;;;;;;;;;;;;;5049520;28;19908;-64
2023/01/17 07:50:02;;;;;;;;;;;;;;;;;;5045984;28;19948;-63
2023/01/17 07:52:28;;;;;;;;;;;;;;;;;;5052788;28;19912;-63
2023/01/17 07:54:54;;;;;;;;;;;;;;;;;;5053262;28;19964;-63
2023/01/17 07:57:20;;;;;;;;;;;;;;;;;;5052885;28;19954;-64
2023/01/17 07:59:45;;;;;;;;;;;;;;;;;;5053116;28;19909;-63
2023/01/17 08:02:11;;;;;;;;;;;;;;;;;;5052066;28;20293;-62
2023/01/17 08:04:37;;;;;;;;;;;;;;;;;;5052070;28;19920;-63
2023/01/17 08:07:03;;;;;;;;;;;;;;;;;;5052563;28;19921;-74
2023/01/17 08:09:29;;;;;;;;;;;;;;;;;;5052638;28;19913;-75
2023/01/17 08:11:55;;;;;;;;;;;;;;;;;;5052324;28;19908;-64
2023/01/17 08:14:21;;;;;;;;;;;;;;;;;;5052850;28;20003;-64
2023/01/17 08:16:47;;;;;;;;;;;;;;;;;;5052027;28;19992;-62
2023/01/17 08:19:13;;;;;;;;;;;;;;;;;;5052030;28;19908;-63
2023/01/17 08:21:39;;;;;;;;;;;;;;;;;;5051499;28;19924;-63
2023/01/17 08:24:05;;;;;;;;;;;;;;;;;;5051704;28;19992;-63
2023/01/17 08:26:31;;;;;;;;;;;;;;;;;;5051166;28;20035;-62
2023/01/17 08:28:58;;;;;;;;;;;;;;;;;;5051014;28;20007;-63
2023/01/17 08:31:24;;;;;;;;;;;;;;;;;;5051096;28;19913;-62
2023/01/17 08:33:50;;;;;;;;;;;;;;;;;;5050425;28;19927;-64
2023/01/17 08:36:16;;;;;;;;;;;;;;;;;;5050192;28;20296;-64
2023/01/17 08:38:42;;;;;;;;;;;;;;;;;;5051730;28;19913;-65
2023/01/17 08:41:08;;;;;;;;;;;;;;;;;;5051584;28;19912;-62
2023/01/17 08:43:34;;;;;;;;;;;;;;;;;;5051757;28;20011;-63
2023/01/17 08:46:00;;;;;;;;;;;;;;;;;;5050369;28;19917;-56
2023/01/17 08:48:26;;;;;;;;;;;;;;;;;;5046885;28;20035;-62
2023/01/17 08:50:52;;;;;;;;;;;;;;;;;;5050044;28;19920;-63
2023/01/17 08:53:20;;;;;;;;;;;;;;;;;;5050345;28;19971;-62
2023/01/17 08:55:46;;;;;;;;;;;;;;;;;;5044453;28;19913;-65
2023/01/17 08:58:12;;;;;;;;;;;;;;;;;;5041388;28;19966;-65
2023/01/17 09:00:38;;;;;;;;;;;;;;;;;;5043616;28;20381;-64
2023/01/17 09:03:09;;;;;;;;;;;;;;;;;;5036647;28;20008;-63
2023/01/17 09:05:35;;;;;;;;;;;;;;;;;;5044169;28;19940;-64
2023/01/17 09:08:00;;;;;;;;;;;;;;;;;;5042869;28;20373;-61
2023/01/17 09:10:26;;;;;;;;;;;;;;;;;;5037502;28;19921;-61
2023/01/17 09:12:52;;;;;;;;;;;;;;;;;;5040399;28;20376;-63
2023/01/17 09:15:19;;;;;;;;;;;;;;;;;;5035149;28;19917;-64
2023/01/17 09:17:44;;;;;;;;;;;;;;;;;;5040716;28;20331;-64
2023/01/17 09:20:10;;;;;;;;;;;;;;;;;;5040246;28;20377;-63
2023/01/17 09:22:37;;;;;;;;;;;;;;;;;;5043233;28;19917;-64
2023/01/17 09:25:03;;;;;;;;;;;;;;;;;;5037908;28;19920;-63
2023/01/17 09:27:29;;;;;;;;;;;;;;;;;;5041216;28;20463;-59
2023/01/17 09:29:55;;;;;;;;;;;;;;;;;;5038599;28;19920;-62
2023/01/17 09:32:21;;;;;;;;;;;;;;;;;;5044103;28;19999;-64
2023/01/17 09:34:47;;;;;;;;;;;;;;;;;;5050501;28;20028;-64
2023/01/17 09:37:13;;;;;;;;;;;;;;;;;;5050034;28;19925;-64
2023/01/17 09:39:39;;;;;;;;;;;;;;;;;;5050549;28;19912;-63
2023/01/17 09:42:04;;;;;;;;;;;;;;;;;;5049624;28;19916;-62
2023/01/17 09:44:30;;;;;;;;;;;;;;;;;;5050528;28;20340;-63
2023/01/17 09:46:56;;;;;;;;;;;;;;;;;;5050793;28;19916;-64
2023/01/17 09:49:22;;;;;;;;;;;;;;;;;;5050612;28;19912;-64
2023/01/17 09:51:48;;;;;;;;;;;;;;;;;;5050323;28;19912;-64
2023/01/17 09:54:14;;;;;;;;;;;;;;;;;;5050725;28;19927;-64
2023/01/17 09:56:40;;;;;;;;;;;;;;;;;;5050450;28;19909;-63
2023/01/17 09:59:07;;;;;;;;;;;;;;;;;;5050094;28;19912;-62
2023/01/17 10:01:33;;;;;;;;;;;;;;;;;;5050230;28;19988;-63
2023/01/17 10:03:59;;;;;;;;;;;;;;;;;;5048876;28;20004;-64
2023/01/17 10:06:25;;;;;;;;;;;;;;;;;;5050570;28;19919;-64
2023/01/17 10:08:50;;;;;;;;;;;;;;;;;;5044476;28;20395;-63
2023/01/17 10:11:16;;;;;;;;;;;;;;;;;;5049770;28;20007;-64
2023/01/17 10:13:42;;;;;;;;;;;;;;;;;;5049199;28;20414;-63
2023/01/17 10:16:08;;;;;;;;;;;;;;;;;;5050101;28;19912;-64
2023/01/17 10:18:34;;;;;;;;;;;;;;;;;;5049885;28;19912;-63
2023/01/17 10:21:00;;;;;;;;;;;;;;;;;;5049976;28;19913;-63
2023/01/17 10:23:26;;;;;;;;;;;;;;;;;;5049948;28;19916;-62
2023/01/17 10:25:52;;;;;;;;;;;;;;;;;;5050071;28;20000;-64
2023/01/17 10:28:18;;;;;;;;;;;;;;;;;;5049534;28;19916;-62
2023/01/17 10:30:44;;;;;;;;;;;;;;;;;;5049712;28;19912;-63
2023/01/17 10:33:10;;;;;;;;;;;;;;;;;;5049931;28;19920;-63
2023/01/17 10:35:36;;;;;;;;;;;;;;;;;;5049556;28;19913;-64
2023/01/17 10:38:02;;;;;;;;;;;;;;;;;;5050093;28;20504;-62
2023/01/17 10:40:28;;;;;;;;;;;;;;;;;;5050006;28;20446;-64
2023/01/17 10:42:54;;;;;;;;;;;;;;;;;;5049129;28;19912;-61
2023/01/17 10:45:20;;;;;;;;;;;;;;;;;;5049698;28;19952;-62
2023/01/17 10:47:46;;;;;;;;;;;;;;;;;;5049747;28;20288;-62
2023/01/17 10:50:12;;;;;;;;;;;;;;;;;;5049547;28;19920;-64
2023/01/17 10:52:38;;;;;;;;;;;;;;;;;;5049121;28;20468;-63
2023/01/17 10:55:04;;;;;;;;;;;;;;;;;;5049633;28;20336;-63
2023/01/17 10:57:29;;;;;;;;;;;;;;;;;;5049074;28;19932;-62
2023/01/17 10:59:55;;;;;;;;;;;;;;;;;;5049605;28;20365;-63
2023/01/17 11:02:21;;;;;;;;;;;;;;;;;;5049418;28;20389;-63
2023/01/17 11:04:47;;;;;;;;;;;;;;;;;;5048995;28;19941;-63
2023/01/17 11:07:13;;;;;;;;;;;;;;;;;;5049224;28;20007;-64
2023/01/17 11:09:39;;;;;;;;;;;;;;;;;;5048970;28;20011;-61
2023/01/17 11:12:05;;;;;;;;;;;;;;;;;;5041988;28;20296;-63
2023/01/17 11:14:34;;;;;;;;;;;;;;;;;;5048705;28;19917;-62
2023/01/17 11:17:00;;;;;;;;;;;;;;;;;;5048924;28;19913;-62
2023/01/17 11:19:27;;;;;;;;;;;;;;;;;;5049212;28;19978;-63
2023/01/17 11:21:53;;;;;;;;;;;;;;;;;;5049033;28;19943;-63
2023/01/17 11:24:19;;;;;;;;;;;;;;;;;;5049174;28;19908;-62
2023/01/17 11:26:46;;;;;;;;;;;;;;;;;;5048271;28;20011;-62
2023/01/17 11:29:11;;;;;;;;;;;;;;;;;;5049543;28;19954;-64
2023/01/17 11:31:37;;;;;;;;;;;;;;;;;;5048741;28;19913;-63
2023/01/17 11:34:04;;;;;;;;;;;;;;;;;;5049134;28;19925;-62
2023/01/17 11:36:30;;;;;;;;;;;;;;;;;;5049483;28;19912;-61
2023/01/17 11:38:56;;;;;;;;;;;;;;;;;;5049241;28;19959;-62
2023/01/17 11:41:22;;;;;;;;;;;;;;;;;;5048503;28;20008;-63
2023/01/17 11:43:47;;;;;;;;;;;;;;;;;;5048639;28;20007;-63
2023/01/17 11:46:14;;;;;;;;;;;;;;;;;;5049376;28;19999;-62
2023/01/17 11:48:40;;;;;;;;;;;;;;;;;;5048820;28;19913;-63
2023/01/17 11:51:05;;;;;;;;;;;;;;;;;;5048897;28;19908;-63
2023/01/17 11:53:31;;;;;;;;;;;;;;;;;;5048951;28;20360;-63
2023/01/17 11:55:57;;;;;;;;;;;;;;;;;;5049005;28;19913;-63
2023/01/17 11:58:23;;;;;;;;;;;;;;;;;;5049193;28;19934;-62
2023/01/17 12:00:49;;;;;;;;;;;;;;;;;;5048763;28;20327;-63
2023/01/17 12:03:15;;;;;;;;;;;;;;;;;;5048783;28;19913;-63
2023/01/17 12:05:41;;;;;;;;;;;;;;;;;;5049043;28;19920;-63
2023/01/17 12:08:07;;;;;;;;;;;;;;;;;;5048986;28;20379;-63
2023/01/17 12:10:33;;;;;;;;;;;;;;;;;;5046831;28;19920;-63
2023/01/17 12:15:43;;;;;;;;;;;;;;;;;;5048716;28;20451;-63
2023/01/17 12:18:09;;;;;;;;;;;;;;;;;;5048842;28;19913;-63
2023/01/17 12:20:35;;;;;;;;;;;;;;;;;;5049015;28;20486;-63
2023/01/17 12:23:01;;;;;;;;;;;;;;;;;;5048368;28;19955;-62
2023/01/17 12:25:27;;;;;;;;;;;;;;;;;;5048062;28;19913;-63
2023/01/17 12:27:53;;;;;;;;;;;;;;;;;;5048339;28;19913;-63
2023/01/17 12:30:19;;;;;;;;;;;;;;;;;;5048409;28;20003;-63
2023/01/17 12:32:44;;;;;;;;;;;;;;;;;;5047940;28;19913;-63
2023/01/17 12:35:10;;;;;;;;;;;;;;;;;;5048447;28;20373;-61
2023/01/17 12:37:36;;;;;;;;;;;;;;;;;;5050726;28;19998;-64
2023/01/17 12:40:03;;;;;;;;;;;;;;;;;;5051328;28;20502;-65
2023/01/17 12:42:29;;;;;;;;;;;;;;;;;;5051473;28;20042;-65
2023/01/17 12:44:55;;;;;;;;;;;;;;;;;;5051823;28;20003;-64
2023/01/17 12:47:21;;;;;;;;;;;;;;;;;;5051695;28;19912;-64
2023/01/17 12:49:46;;;;;;;;;;;;;;;;;;5051559;28;20296;-65
2023/01/17 12:52:12;;;;;;;;;;;;;;;;;;5051766;28;19948;-65
2023/01/17 12:54:38;;;;;;;;;;;;;;;;;;5051263;28;19921;-65
2023/01/17 12:57:05;;;;;;;;;;;;;;;;;;5051317;28;19990;-63
2023/01/17 12:59:31;;;;;;;;;;;;;;;;;;5051751;28;19916;-64
2023/01/17 13:01:56;;;;;;;;;;;;;;;;;;5049782;28;19908;-64
2023/01/17 13:04:22;;;;;;;;;;;;;;;;;;5051345;28;19913;-65
2023/01/17 13:06:49;;;;;;;;;;;;;;;;;;5051817;28;19913;-64
2023/01/17 13:09:15;;;;;;;;;;;;;;;;;;5051031;28;19913;-65
2023/01/17 13:11:42;;;;;;;;;;;;;;;;;;5050104;28;20308;-64
2023/01/17 13:14:08;;;;;;;;;;;;;;;;;;5050773;28;19921;-64
2023/01/17 13:16:34;;;;;;;;;;;;;;;;;;5051379;28;19924;-60
2023/01/17 13:19:00;;;;;;;;;;;;;;;;;;5051056;28;19956;-63
2023/01/17 13:21:26;;;;;;;;;;;;;;;;;;5044016;28;19916;-65
2023/01/17 13:23:52;;;;;;;;;;;;;;;;;;5042606;28;19962;-62
2023/01/17 13:26:18;;;;;;;;;;;;;;;;;;5042588;28;20306;-65
2023/01/17 13:28:44;;;;;;;;;;;;;;;;;;5040643;28;19971;-65
2023/01/17 13:31:11;;;;;;;;;;;;;;;;;;5040152;28;20008;-64
2023/01/17 13:33:37;;;;;;;;;;;;;;;;;;5038127;28;20366;-61
2023/01/17 13:36:03;;;;;;;;;;;;;;;;;;5039401;28;20007;-64
2023/01/17 13:38:28;;;;;;;;;;;;;;;;;;5039927;28;19913;-65
2023/01/17 13:40:54;;;;;;;;;;;;;;;;;;5041182;28;19921;-66
2023/01/17 13:43:20;;;;;;;;;;;;;;;;;;5042269;28;20027;-65
2023/01/17 13:45:47;;;;;;;;;;;;;;;;;;5044599;28;19917;-64
2023/01/17 13:48:17;;;;;;;;;;;;;;;;;;5039700;28;19923;-66
2023/01/17 13:50:42;;;;;;;;;;;;;;;;;;5042681;28;19947;-66
2023/01/17 13:53:08;;;;;;;;;;;;;;;;;;5035290;28;19951;-65
2023/01/17 13:55:34;;;;;;;;;;;;;;;;;;5039177;28;19921;-64
2023/01/17 13:58:00;;;;;;;;;;;;;;;;;;5038095;28;19996;-65
2023/01/17 14:00:26;;;;;;;;;;;;;;;;;;5042337;28;19921;-64
2023/01/17 14:02:52;;;;;;;;;;;;;;;;;;5035654;28;19917;-65
2023/01/17 14:05:20;;;;;;;;;;;;;;;;;;5037026;28;19960;-65
2023/01/17 14:07:46;;;;;;;;;;;;;;;;;;5037953;28;19913;-63
2023/01/17 14:10:13;;;;;;;;;;;;;;;;;;5036104;28;20380;-64
2023/01/17 14:12:38;;;;;;;;;;;;;;;;;;5041425;28;19917;-65
2023/01/17 14:15:05;;;;;;;;;;;;;;;;;;5041615;28;19979;-65
2023/01/17 14:17:30;;;;;;;;;;;;;;;;;;5043961;28;20183;-65
2023/01/17 14:19:59;;;;;;;;;;;;;;;;;;5033838;28;19917;-66
2023/01/17 14:22:25;;;;;;;;;;;;;;;;;;5043787;28;19948;-67
2023/01/17 14:24:51;;;;;;;;;;;;;;;;;;5041759;28;19982;-63
2023/01/17 14:27:17;;;;;;;;;;;;;;;;;;5040394;28;19932;-66
2023/01/17 14:29:43;;;;;;;;;;;;;;;;;;5035324;28;20270;-66
2023/01/17 14:32:09;;;;;;;;;;;;;;;;;;5041887;28;19959;-66
2023/01/17 14:34:35;;;;;;;;;;;;;;;;;;5035620;28;20385;-66
2023/01/17 14:37:01;;;;;;;;;;;;;;;;;;5042433;28;19917;-64
2023/01/17 14:39:27;;;;;;;;;;;;;;;;;;5035119;28;19970;-66
2023/01/17 14:41:53;;;;;;;;;;;;;;;;;;5040964;28;19948;-65
2023/01/17 14:44:18;;;;;;;;;;;;;;;;;;5041112;28;20385;-66
2023/01/17 14:46:44;;;;;;;;;;;;;;;;;;5038890;28;19928;-66
2023/01/17 14:49:10;;;;;;;;;;;;;;;;;;5038275;28;19921;-67
2023/01/17 14:51:37;;;;;;;;;;;;;;;;;;5036734;28;20020;-66
2023/01/17 14:54:06;;;;;;;;;;;;;;;;;;5039195;28;19928;-65
2023/01/17 14:56:32;;;;;;;;;;;;;;;;;;5033599;28;19927;-67
2023/01/17 14:58:58;;;;;;;;;;;;;;;;;;5039393;28;19913;-66
2023/01/17 15:01:24;;;;;;;;;;;;;;;;;;5031976;28;20016;-67
2023/01/17 15:03:50;;;;;;;;;;;;;;;;;;5040404;28;19914;-65
2023/01/17 15:06:16;;;;;;;;;;;;;;;;;;5039332;28;19917;-67
2023/01/17 15:08:42;;;;;;;;;;;;;;;;;;5041395;28;19939;-66
2023/01/17 15:11:08;;;;;;;;;;;;;;;;;;5034073;28;19923;-67
2023/01/17 15:13:34;;;;;;;;;;;;;;;;;;5038193;28;20022;-68
2023/01/17 15:16:00;;;;;;;;;;;;;;;;;;5039708;28;19928;-65
2023/01/17 15:18:26;;;;;;;;;;;;;;;;;;5039348;28;19936;-67
2023/01/17 15:20:52;;;;;;;;;;;;;;;;;;5038421;28;19913;-65
2023/01/17 15:23:18;;;;;;;;;;;;;;;;;;5039890;28;20376;-66
2023/01/17 15:25:44;;;;;;;;;;;;;;;;;;5036338;28;19917;-67
2023/01/17 15:28:10;;;;;;;;;;;;;;;;;;5040749;28;20334;-65
2023/01/17 15:30:36;;;;;;;;;;;;;;;;;;5038901;28;20400;-67
2023/01/17 15:33:01;;;;;;;;;;;;;;;;;;5044728;28;19924;-65
2023/01/17 15:35:27;;;;;;;;;;;;;;;;;;5044191;28;20335;-64
2023/01/17 15:37:53;;;;;;;;;;;;;;;;;;5045287;28;19916;-65
2023/01/17 15:40:19;;;;;;;;;;;;;;;;;;5044909;28;19916;-63
2023/01/17 15:42:45;;;;;;;;;;;;;;;;;;5042898;28;19940;-67
2023/01/17 15:45:11;;;;;;;;;;;;;;;;;;5040064;28;19925;-67
2023/01/17 15:47:37;;;;;;;;;;;;;;;;;;5032652;28;19928;-67
2023/01/17 15:50:03;;;;;;;;;;;;;;;;;;5040284;28;19917;-66
2023/01/17 15:52:29;;;;;;;;;;;;;;;;;;5032743;28;19916;-67
2023/01/17 15:54:56;;;;;;;;;;;;;;;;;;5040945;28;20628;-66
2023/01/17 15:57:22;;;;;;;;;;;;;;;;;;5033449;28;20340;-66
2023/01/17 15:59:48;;;;;;;;;;;;;;;;;;5037937;28;19959;-66
2023/01/17 16:02:14;;;;;;;;;;;;;;;;;;5041024;28;20286;-64
2023/01/17 16:04:41;;;;;;;;;;;;;;;;;;5041831;28;19924;-67
2023/01/17 16:07:07;;;;;;;;;;;;;;;;;;5035141;28;19923;-68
2023/01/17 16:09:33;;;;;;;;;;;;;;;;;;5035740;28;19917;-66
2023/01/17 16:11:59;;;;;;;;;;;;;;;;;;5040279;28;19998;-68
2023/01/17 16:14:25;;;;;;;;;;;;;;;;;;5040050;28;19928;-66
2023/01/17 16:16:51;;;;;;;;;;;;;;;;;;5041880;28;19917;-65
2023/01/17 16:19:17;;;;;;;;;;;;;;;;;;5040740;28;19920;-68
2023/01/17 16:21:45;;;;;;;;;;;;;;;;;;5042738;28;19923;-66
2023/01/17 16:24:11;;;;;;;;;;;;;;;;;;5047882;28;19917;-68
2023/01/17 16:26:37;;;;;;;;;;;;;;;;;;5044024;28;19929;-66
2023/01/17 16:29:03;;;;;;;;;;;;;;;;;;5038167;28;19974;-66
2023/01/17 16:31:29;;;;;;;;;;;;;;;;;;5050421;28;20302;-67
2023/01/17 16:33:55;;;;;;;;;;;;;;;;;;5051905;28;19917;-65
2023/01/17 16:36:21;;;;;;;;;;;;;;;;;;5050255;28;20002;-65
2023/01/17 16:38:47;;;;;;;;;;;;;;;;;;5051182;28;19958;-65
2023/01/17 16:41:13;;;;;;;;;;;;;;;;;;5051567;28;20343;-64
2023/01/17 16:43:39;;;;;;;;;;;;;;;;;;5051055;28;20519;-63
2023/01/17 16:46:05;;;;;;;;;;;;;;;;;;5050744;28;20023;-63
2023/01/17 16:48:31;;;;;;;;;;;;;;;;;;5051007;28;20301;-66
2023/01/17 16:50:58;;;;;;;;;;;;;;;;;;5050770;28;19919;-65
2023/01/17 16:53:24;;;;;;;;;;;;;;;;;;5050834;28;20011;-66
2023/01/17 16:55:49;;;;;;;;;;;;;;;;;;5051191;28;20008;-61
2023/01/17 16:58:15;;;;;;;;;;;;;;;;;;5051042;28;19955;-65
2023/01/17 17:00:41;;;;;;;;;;;;;;;;;;5050636;28;19917;-65
2023/01/17 17:03:07;;;;;;;;;;;;;;;;;;5050497;28;19920;-64
2023/01/17 17:05:33;;;;;;;;;;;;;;;;;;5051613;28;20400;-65
2023/01/17 17:07:59;;;;;;;;;;;;;;;;;;5050402;28;19913;-64
2023/01/17 17:10:26;;;;;;;;;;;;;;;;;;5050518;28;19934;-66
2023/01/17 17:12:52;;;;;;;;;;;;;;;;;;5049983;28;19909;-64
2023/01/17 17:15:18;;;;;;;;;;;;;;;;;;5049913;28;19916;-64
2023/01/17 17:17:44;;;;;;;;;;;;;;;;;;5049628;28;20354;-62
2023/01/17 17:20:13;;;;;;;;;;;;;;;;;;5049845;28;19916;-62
2023/01/17 17:22:39;;;;;;;;;;;;;;;;;;5049105;28;19928;-61
2023/01/17 17:25:05;;;;;;;;;;;;;;;;;;5048861;28;20649;-62
2023/01/17 17:27:30;;;;;;;;;;;;;;;;;;5050706;28;19913;-61
2023/01/17 17:29:56;;;;;;;;;;;;;;;;;;5050521;28;19934;-61
2023/01/17 17:32:22;;;;;;;;;;;;;;;;;;5050346;28;20305;-61
2023/01/17 17:34:49;;;;;;;;;;;;;;;;;;5050326;28;19917;-61
2023/01/17 17:37:15;;;;;;;;;;;;;;;;;;5050170;28;20420;-62
2023/01/17 17:39:41;;;;;;;;;;;;;;;;;;5049093;28;20023;-62
2023/01/17 17:42:07;;;;;;;;;;;;;;;;;;5050575;28;19917;-63
2023/01/17 17:44:33;;;;;;;;;;;;;;;;;;5049780;28;20361;-62
2023/01/17 17:46:59;;;;;;;;;;;;;;;;;;5050202;28;19933;-61
2023/01/17 17:49:25;;;;;;;;;;;;;;;;;;5050253;28;20007;-62
2023/01/17 17:51:51;;;;;;;;;;;;;;;;;;5050059;28;20004;-62
2023/01/17 17:54:17;;;;;;;;;;;;;;;;;;5049675;28;19960;-61
2023/01/17 17:56:47;;;;;;;;;;;;;;;;;;5050545;28;20376;-60